createdAt,value
2024-01-24T00:02:18.735Z,4.91
2024-01-24T00:04:45.384Z,4.52
2024-01-24T00:07:15.970Z,4.55
2024-01-24T00:09:43.659Z,4.62
2024-01-24T00:12:11.392Z,4.65
2024-01-24T00:14:37.911Z,4.65
2024-01-24T00:17:04.523Z,4.58
2024-01-24T00:19:31.276Z,4.60
2024-01-24T00:21:58.145Z,4.58
2024-01-24T00:24:24.649Z,4.71
2024-01-24T00:26:51.187Z,4.75
2024-01-24T00:29:17.724Z,4.67
2024-01-24T00:31:44.362Z,4.78
2024-01-24T00:34:10.977Z,4.71
2024-01-24T00:36:37.755Z,4.62
2024-01-24T00:39:04.745Z,4.64
2024-01-24T00:41:31.243Z,4.65
2024-01-24T00:44:03.965Z,4.53
2024-01-24T00:46:30.436Z,4.44
2024-01-24T00:48:57.045Z,4.57
2024-01-24T00:51:24.001Z,4.64
2024-01-24T00:53:55.086Z,4.75
2024-01-24T00:56:21.820Z,4.45
2024-01-24T00:58:54.367Z,4.71
2024-01-24T01:01:23.051Z,4.65
2024-01-24T01:03:58.600Z,5.01
2024-01-24T01:06:30.436Z,4.90
2024-01-24T01:08:56.913Z,4.69
2024-01-24T01:11:23.491Z,4.79
2024-01-24T01:13:49.955Z,4.91
2024-01-24T01:16:17.534Z,4.73
2024-01-24T01:18:56.266Z,4.97
2024-01-24T01:21:22.835Z,4.90
2024-01-24T01:23:50.350Z,5.02
2024-01-24T01:26:16.902Z,4.93
2024-01-24T01:28:43.378Z,5.01
2024-01-24T01:31:10.058Z,5.05
2024-01-24T01:33:37.875Z,5.04
2024-01-24T01:36:14.222Z,4.98
2024-01-24T01:38:49.110Z,4.81
2024-01-24T01:41:15.688Z,4.92
2024-01-24T01:43:42.207Z,5.06
2024-01-24T01:46:21.574Z,5.01
2024-01-24T01:48:50.671Z,5.14
2024-01-24T01:51:23.803Z,5.08
2024-01-24T01:53:50.647Z,5.22
2024-01-24T01:56:21.036Z,5.16
2024-01-24T01:58:50.563Z,5.14
2024-01-24T02:01:20.474Z,5.23
2024-01-24T02:03:47.585Z,5.32
2024-01-24T02:06:15.367Z,5.31
2024-01-24T02:08:44.345Z,5.36
2024-01-24T02:11:11.641Z,5.37
2024-01-24T02:13:39.303Z,5.39
2024-01-24T02:16:06.339Z,5.42
2024-01-24T02:18:33.537Z,5.30
2024-01-24T02:21:00.976Z,5.32
2024-01-24T02:23:27.886Z,5.32
2024-01-24T02:25:54.819Z,5.27
2024-01-24T02:28:22.382Z,5.44
2024-01-24T02:30:49.011Z,5.49
2024-01-24T02:33:15.919Z,5.55
2024-01-24T02:35:42.623Z,5.56
2024-01-24T02:38:09.230Z,5.54
2024-01-24T02:40:35.763Z,5.67
2024-01-24T02:43:02.299Z,5.69
2024-01-24T02:45:28.875Z,5.68
2024-01-24T02:47:55.555Z,5.69
2024-01-24T02:50:22.135Z,5.57
2024-01-24T02:52:48.650Z,5.66
2024-01-24T02:55:18.409Z,5.60
2024-01-24T02:57:46.675Z,5.72
2024-01-24T03:00:16.956Z,5.81
2024-01-24T03:02:43.817Z,5.72
2024-01-24T03:05:10.995Z,5.68
2024-01-24T03:07:38.006Z,5.75
2024-01-24T03:10:05.685Z,5.71
2024-01-24T03:12:33.278Z,5.83
2024-01-24T03:15:00.965Z,5.75
2024-01-24T03:17:27.473Z,5.62
2024-01-24T03:19:54.087Z,5.64
2024-01-24T03:22:21.304Z,5.71
2024-01-24T03:24:48.817Z,5.66
2024-01-24T03:27:16.449Z,5.67
2024-01-24T03:29:43.781Z,5.67
2024-01-24T03:32:10.910Z,5.75
2024-01-24T03:34:38.576Z,5.80
2024-01-24T03:37:05.399Z,5.73
2024-01-24T03:39:31.917Z,5.77
2024-01-24T03:41:58.498Z,5.79
2024-01-24T03:44:25.536Z,5.88
2024-01-24T03:46:54.013Z,5.66
2024-01-24T03:49:22.783Z,5.92
2024-01-24T03:51:49.569Z,5.97
2024-01-24T03:54:16.566Z,6.09
2024-01-24T03:56:44.560Z,6.07
2024-01-24T03:59:11.596Z,6.19
2024-01-24T04:01:38.247Z,6.34
2024-01-24T04:04:05.622Z,6.33
2024-01-24T04:06:32.473Z,6.41
2024-01-24T04:08:59.004Z,6.37
2024-01-24T04:11:25.482Z,6.46
2024-01-24T04:13:57.740Z,6.58
2024-01-24T04:16:25.405Z,6.53
2024-01-24T04:18:53.642Z,6.59
2024-01-24T04:21:21.026Z,6.62
2024-01-24T04:23:47.574Z,6.69
2024-01-24T04:26:14.065Z,6.51
2024-01-24T04:28:40.545Z,6.68
2024-01-24T04:31:08.357Z,6.78
2024-01-24T04:33:36.481Z,6.83
2024-01-24T04:36:03.407Z,6.90
2024-01-24T04:38:29.938Z,7.02
2024-01-24T04:40:56.461Z,6.99
2024-01-24T04:43:23.078Z,6.94
2024-01-24T04:45:50.076Z,7.04
2024-01-24T04:48:16.762Z,6.95
2024-01-24T04:50:43.466Z,6.99
2024-01-24T04:53:11.032Z,7.12
2024-01-24T04:55:38.040Z,7.05
2024-01-24T04:58:05.644Z,7.11
2024-01-24T05:00:32.297Z,7.08
2024-01-24T05:02:58.912Z,7.13
2024-01-24T05:05:25.397Z,7.12
2024-01-24T05:07:51.900Z,7.07
2024-01-24T05:10:18.471Z,7.23
2024-01-24T05:12:44.978Z,7.18
2024-01-24T05:15:14.491Z,7.18
2024-01-24T05:17:43.192Z,7.24
2024-01-24T05:20:11.906Z,7.19
2024-01-24T05:22:38.835Z,7.19
2024-01-24T05:25:06.289Z,7.31
2024-01-24T05:27:33.028Z,7.30
2024-01-24T05:30:00.878Z,7.29
2024-01-24T05:32:32.772Z,7.50
2024-01-24T05:34:59.322Z,7.35
2024-01-24T05:37:25.893Z,7.38
2024-01-24T05:39:52.446Z,7.35
2024-01-24T05:42:18.974Z,7.40
2024-01-24T05:44:45.474Z,7.44
2024-01-24T05:47:12.099Z,7.43
2024-01-24T05:49:39.645Z,7.52
2024-01-24T05:52:06.845Z,7.53
2024-01-24T05:54:33.947Z,7.53
2024-01-24T05:57:01.152Z,7.51
2024-01-24T05:59:27.734Z,7.61
2024-01-24T06:01:54.308Z,7.74
2024-01-24T06:04:20.929Z,7.84
2024-01-24T06:06:47.598Z,7.86
2024-01-24T06:09:14.174Z,7.83
2024-01-24T06:11:40.699Z,7.78
2024-01-24T06:14:07.242Z,7.79
2024-01-24T06:16:33.782Z,7.69
2024-01-24T06:19:00.439Z,7.77
2024-01-24T06:21:27.023Z,7.94
2024-01-24T06:23:53.500Z,8.03
2024-01-24T06:26:20.012Z,7.98
2024-01-24T06:28:47.736Z,7.86
2024-01-24T06:31:15.950Z,8.01
2024-01-24T06:33:42.578Z,7.87
2024-01-24T06:36:10.076Z,7.94
2024-01-24T06:38:36.618Z,8.14
2024-01-24T06:41:03.258Z,8.00
2024-01-24T06:43:30.415Z,7.92
2024-01-24T06:45:57.164Z,7.93
2024-01-24T06:48:23.890Z,7.89
2024-01-24T06:50:50.514Z,7.96
2024-01-24T06:53:17.047Z,7.83
2024-01-24T06:55:45.185Z,7.87
2024-01-24T06:58:11.864Z,8.00
2024-01-24T07:00:38.521Z,7.82
2024-01-24T07:03:05.690Z,7.69
2024-01-24T07:05:32.201Z,7.70
2024-01-24T07:07:59.056Z,7.55
2024-01-24T07:10:25.623Z,7.59
2024-01-24T07:12:52.651Z,7.73
2024-01-24T07:15:19.731Z,7.71
2024-01-24T07:17:46.652Z,7.59
2024-01-24T07:20:14.300Z,7.75
2024-01-24T07:22:40.843Z,7.77
2024-01-24T07:25:09.717Z,7.73
2024-01-24T07:27:38.456Z,7.61
2024-01-24T07:30:05.689Z,7.67
2024-01-24T07:32:32.753Z,7.67
2024-01-24T07:35:02.804Z,7.72
2024-01-24T07:37:31.628Z,7.88
2024-01-24T07:40:04.484Z,7.70
2024-01-24T07:42:32.257Z,7.81
2024-01-24T07:45:00.838Z,7.82
2024-01-24T07:47:27.991Z,7.91
2024-01-24T07:49:56.740Z,8.00
2024-01-24T07:52:32.197Z,8.10
2024-01-24T07:55:17.532Z,8.05
2024-01-24T07:57:44.448Z,8.06
2024-01-24T08:00:18.413Z,7.96
2024-01-24T08:02:46.059Z,8.06
2024-01-24T08:05:14.082Z,8.24
2024-01-24T08:07:42.365Z,8.06
2024-01-24T08:10:13.164Z,8.13
2024-01-24T08:12:40.878Z,8.17
2024-01-24T08:15:08.204Z,8.21
2024-01-24T08:17:38.027Z,8.24
2024-01-24T08:20:10.747Z,8.27
2024-01-24T08:22:38.817Z,8.25
2024-01-24T08:25:05.908Z,8.37
2024-01-24T08:27:32.625Z,8.52
2024-01-24T08:30:00.622Z,8.54
2024-01-24T08:32:27.349Z,8.56
2024-01-24T08:34:54.231Z,8.61
2024-01-24T08:37:21.841Z,8.64
2024-01-24T08:39:48.564Z,8.68
2024-01-24T08:42:15.086Z,8.55
2024-01-24T08:44:41.616Z,8.69
2024-01-24T08:47:08.134Z,8.82
2024-01-24T08:49:34.795Z,9.04
2024-01-24T08:52:03.470Z,8.90
2024-01-24T08:54:30.617Z,8.93
2024-01-24T08:56:57.759Z,9.02
2024-01-24T08:59:26.428Z,9.10
2024-01-24T09:01:56.509Z,9.07
2024-01-24T09:04:23.261Z,9.12
2024-01-24T09:06:50.204Z,9.22
2024-01-24T09:09:17.369Z,9.30
2024-01-24T09:11:50.797Z,9.44
2024-01-24T09:14:24.557Z,9.43
2024-01-24T09:16:51.194Z,9.57
2024-01-24T09:19:21.479Z,9.81
2024-01-24T09:21:48.272Z,9.89
2024-01-24T09:24:15.247Z,10.00
2024-01-24T09:26:42.003Z,9.92
2024-01-24T09:29:13.139Z,9.93
2024-01-24T09:31:44.647Z,9.91
2024-01-24T09:34:12.202Z,9.83
2024-01-24T09:36:38.917Z,9.80
2024-01-24T09:39:05.441Z,9.91
2024-01-24T09:41:41.045Z,9.88
2024-01-24T09:44:10.218Z,10.00
2024-01-24T09:46:46.176Z,10.09
2024-01-24T09:49:13.069Z,10.18
2024-01-24T09:51:41.100Z,10.19
2024-01-24T09:54:08.593Z,10.28
2024-01-24T09:56:44.429Z,10.44
2024-01-24T09:59:12.781Z,10.44
2024-01-24T10:01:40.603Z,10.42
2024-01-24T10:04:08.676Z,10.51
2024-01-24T10:06:41.236Z,10.80
2024-01-24T10:09:09.121Z,10.95
2024-01-24T10:11:36.040Z,11.23
2024-01-24T10:14:02.827Z,11.50
2024-01-24T10:16:29.374Z,11.23
2024-01-24T10:18:58.442Z,11.22
2024-01-24T10:21:26.926Z,11.17
2024-01-24T10:23:57.116Z,11.08
2024-01-24T10:26:24.001Z,10.94
2024-01-24T10:28:56.746Z,10.75
2024-01-24T10:31:25.047Z,10.91
2024-01-24T10:33:58.869Z,11.07
2024-01-24T10:36:32.702Z,11.29
2024-01-24T10:39:04.821Z,11.33
2024-01-24T10:41:33.470Z,11.18
2024-01-24T10:44:10.721Z,11.18
2024-01-24T10:46:53.361Z,11.02
2024-01-24T10:49:22.733Z,11.04
2024-01-24T10:51:52.151Z,10.94
2024-01-24T10:54:20.808Z,10.86
2024-01-24T10:56:51.232Z,10.93
2024-01-24T10:59:19.003Z,10.84
2024-01-24T11:01:46.393Z,10.94
2024-01-24T11:04:20.405Z,10.86
2024-01-24T11:07:02.984Z,10.85
2024-01-24T11:09:54.441Z,11.16
2024-01-24T11:12:22.650Z,11.38
2024-01-24T11:14:49.988Z,11.58
2024-01-24T11:17:17.282Z,11.59
2024-01-24T11:19:47.977Z,11.57
2024-01-24T11:22:30.153Z,11.74
2024-01-24T11:25:02.801Z,11.58
2024-01-24T11:27:37.206Z,11.59
2024-01-24T11:30:36.897Z,11.54
2024-01-24T11:33:05.912Z,11.33
2024-01-24T11:35:37.210Z,11.49
2024-01-24T11:38:27.611Z,11.42
2024-01-24T11:41:02.979Z,11.52
2024-01-24T11:43:35.176Z,11.70
2024-01-24T11:46:07.008Z,12.10
2024-01-24T11:48:36.384Z,12.30
2024-01-24T11:51:03.594Z,12.53
2024-01-24T11:53:30.648Z,12.53
2024-01-24T11:56:05.754Z,12.68
2024-01-24T11:58:33.021Z,12.82
2024-01-24T12:01:04.555Z,12.88
2024-01-24T12:03:31.315Z,12.88
2024-01-24T12:05:58.995Z,12.69
2024-01-24T12:08:26.218Z,12.51
2024-01-24T12:10:52.891Z,12.43
2024-01-24T12:13:22.989Z,12.25
2024-01-24T12:15:52.238Z,12.17
2024-01-24T12:18:20.683Z,12.00
2024-01-24T12:20:49.463Z,11.89
2024-01-24T12:23:17.677Z,11.92
2024-01-24T12:25:48.150Z,11.88
2024-01-24T12:28:15.572Z,11.95
2024-01-24T12:30:48.158Z,12.02
2024-01-24T12:33:18.642Z,12.21
2024-01-24T12:35:47.815Z,12.44
2024-01-24T12:38:15.668Z,12.66
2024-01-24T12:40:51.823Z,12.72
2024-01-24T12:43:22.756Z,12.84
2024-01-24T12:45:51.662Z,12.92
2024-01-24T12:48:19.867Z,12.91
2024-01-24T12:50:49.780Z,12.56
2024-01-24T12:53:17.181Z,12.45
2024-01-24T12:55:43.734Z,12.30
2024-01-24T12:58:11.027Z,12.09
2024-01-24T13:00:37.874Z,11.99
2024-01-24T13:03:06.484Z,11.93
2024-01-24T13:05:42.819Z,11.97
2024-01-24T13:08:14.888Z,11.96
2024-01-24T13:10:45.286Z,11.79
2024-01-24T13:13:12.827Z,11.78
2024-01-24T13:15:40.507Z,11.93
2024-01-24T13:18:09.167Z,11.78
2024-01-24T13:20:39.011Z,11.69
2024-01-24T13:23:09.697Z,11.76
2024-01-24T13:25:36.271Z,11.57
2024-01-24T13:28:04.003Z,11.75
2024-01-24T13:30:30.992Z,11.54
2024-01-24T13:32:58.785Z,11.56
2024-01-24T13:35:25.678Z,11.46
2024-01-24T13:37:53.228Z,11.38
2024-01-24T13:40:20.028Z,11.44
2024-01-24T13:42:46.785Z,11.50
2024-01-24T13:45:13.400Z,11.53
2024-01-24T13:47:39.946Z,11.51
2024-01-24T13:50:07.613Z,11.52
2024-01-24T13:52:34.755Z,11.58
2024-01-24T13:55:01.470Z,11.50
2024-01-24T13:57:28.184Z,11.54
2024-01-24T13:59:56.283Z,11.41
2024-01-24T14:02:23.060Z,11.32
2024-01-24T14:04:50.976Z,11.17
2024-01-24T14:07:17.871Z,11.27
2024-01-24T14:09:45.568Z,11.19
2024-01-24T14:12:12.434Z,11.10
2024-01-24T14:14:40.140Z,11.25
2024-01-24T14:17:14.798Z,11.08
2024-01-24T14:20:23.319Z,11.05
2024-01-24T14:22:50.105Z,11.08
2024-01-24T14:25:16.858Z,11.01
2024-01-24T14:27:44.360Z,10.97
2024-01-24T14:30:11.689Z,10.91
2024-01-24T14:32:39.666Z,10.96
2024-01-24T14:35:07.552Z,11.08
2024-01-24T14:37:40.919Z,10.95
2024-01-24T14:40:08.367Z,10.89
2024-01-24T14:42:36.659Z,10.80
2024-01-24T14:45:03.788Z,10.84
2024-01-24T14:47:37.364Z,10.77
2024-01-24T14:50:04.831Z,10.83
2024-01-24T14:52:31.414Z,10.88
2024-01-24T14:54:58.038Z,10.77
2024-01-24T14:57:24.791Z,10.88
2024-01-24T14:59:51.543Z,10.84
2024-01-24T15:02:18.022Z,10.67
2024-01-24T15:04:44.939Z,10.68
2024-01-24T15:07:12.936Z,10.55
2024-01-24T15:09:40.575Z,10.44
2024-01-24T15:12:07.334Z,10.51
2024-01-24T15:14:33.912Z,10.44
2024-01-24T15:17:02.482Z,10.47
2024-01-24T15:19:31.174Z,10.36
2024-01-24T15:21:58.623Z,10.32
2024-01-24T15:24:25.535Z,10.23
2024-01-24T15:26:58.884Z,10.43
2024-01-24T15:29:25.848Z,10.17
2024-01-24T15:31:52.415Z,10.08
2024-01-24T15:34:20.469Z,10.03
2024-01-24T15:36:48.377Z,10.15
2024-01-24T15:39:17.124Z,10.06
2024-01-24T15:41:47.701Z,9.92
2024-01-24T15:44:14.340Z,9.97
2024-01-24T15:46:41.483Z,9.88
2024-01-24T15:49:10.445Z,9.85
2024-01-24T15:51:38.125Z,9.90
2024-01-24T15:54:04.692Z,9.90
2024-01-24T15:56:31.440Z,9.81
2024-01-24T15:58:59.391Z,9.74
2024-01-24T16:01:27.888Z,9.62
2024-01-24T16:03:56.315Z,9.59
2024-01-24T16:06:25.549Z,9.53
2024-01-24T16:08:52.557Z,9.57
2024-01-24T16:11:19.577Z,9.44
2024-01-24T16:13:46.246Z,9.58
2024-01-24T16:16:16.261Z,9.56
2024-01-24T16:18:44.477Z,9.46
2024-01-24T16:21:11.304Z,9.68
2024-01-24T16:23:37.822Z,9.35
2024-01-24T16:26:04.641Z,9.40
2024-01-24T16:28:33.136Z,9.44
2024-01-24T16:31:00.319Z,9.19
2024-01-24T16:33:28.112Z,9.27
2024-01-24T16:35:54.868Z,9.13
2024-01-24T16:38:21.415Z,9.28
2024-01-24T16:40:48.000Z,9.22
2024-01-24T16:43:14.855Z,9.13
2024-01-24T16:45:41.522Z,9.17
2024-01-24T16:48:08.479Z,9.21
2024-01-24T16:50:37.189Z,9.20
2024-01-24T16:53:03.806Z,9.31
2024-01-24T16:55:33.520Z,9.00
2024-01-24T16:58:00.256Z,9.06
2024-01-24T17:00:26.800Z,9.14
2024-01-24T17:02:58.382Z,9.18
2024-01-24T17:05:29.727Z,9.07
2024-01-24T17:07:56.534Z,8.98
2024-01-24T17:10:23.073Z,8.90
2024-01-24T17:12:51.236Z,8.89
2024-01-24T17:15:18.033Z,8.99
2024-01-24T17:17:45.929Z,9.11
2024-01-24T17:20:12.802Z,8.85
2024-01-24T17:22:39.340Z,9.02
2024-01-24T17:25:08.607Z,8.97
2024-01-24T17:27:35.767Z,8.91
2024-01-24T17:30:02.708Z,8.95
2024-01-24T17:32:35.345Z,8.91
2024-01-24T17:35:03.119Z,9.04
2024-01-24T17:37:30.650Z,9.00
2024-01-24T17:40:08.497Z,8.95
2024-01-24T17:42:35.378Z,8.96
2024-01-24T17:45:01.942Z,8.89
2024-01-24T17:47:31.312Z,8.94
2024-01-24T17:49:58.979Z,8.96
2024-01-24T17:52:26.521Z,8.87
2024-01-24T17:54:53.295Z,8.83
2024-01-24T17:57:19.904Z,8.73
2024-01-24T17:59:46.463Z,8.82
2024-01-24T18:02:13.153Z,8.75
2024-01-24T18:04:41.826Z,8.95
2024-01-24T18:07:08.532Z,8.81
2024-01-24T18:09:35.100Z,8.74
2024-01-24T18:12:01.767Z,8.76
2024-01-24T18:14:28.238Z,9.04
2024-01-24T18:16:54.728Z,8.87
2024-01-24T18:19:21.331Z,8.90
2024-01-24T18:21:53.880Z,8.83
2024-01-24T18:24:21.411Z,8.89
2024-01-24T18:26:47.935Z,8.66
2024-01-24T18:29:16.749Z,8.81
2024-01-24T18:31:43.974Z,8.71
2024-01-24T18:34:10.679Z,8.84
2024-01-24T18:36:37.786Z,8.73
2024-01-24T18:39:04.629Z,8.86
2024-01-24T18:41:31.708Z,8.69
2024-01-24T18:43:58.264Z,8.48
2024-01-24T18:46:26.528Z,8.64
2024-01-24T18:48:53.494Z,8.54
2024-01-24T18:51:20.891Z,8.48
2024-01-24T18:53:47.496Z,8.45
2024-01-24T18:56:16.341Z,8.36
2024-01-24T18:58:43.866Z,8.48
2024-01-24T19:01:11.113Z,8.40
2024-01-24T19:03:42.638Z,8.35
2024-01-24T19:06:12.280Z,8.25
2024-01-24T19:08:42.988Z,8.36
2024-01-24T19:11:21.626Z,8.37
2024-01-24T19:13:48.227Z,8.49
2024-01-24T19:16:14.922Z,8.47
2024-01-24T19:18:45.971Z,8.47
2024-01-24T19:21:13.580Z,8.49
2024-01-24T19:23:40.102Z,8.52
2024-01-24T19:26:06.613Z,8.53
2024-01-24T19:28:36.887Z,8.49
2024-01-24T19:31:05.067Z,8.34
2024-01-24T19:33:31.771Z,8.38
2024-01-24T19:35:59.382Z,8.31
2024-01-24T19:38:28.978Z,8.41
2024-01-24T19:40:55.533Z,8.37
2024-01-24T19:43:22.199Z,8.31
2024-01-24T19:45:48.854Z,8.32
2024-01-24T19:48:22.824Z,8.33
2024-01-24T19:50:49.420Z,8.28
2024-01-24T19:53:20.846Z,8.24
2024-01-24T19:55:51.521Z,8.24
2024-01-24T19:58:20.399Z,8.26
2024-01-24T20:00:48.024Z,8.11
2024-01-24T20:03:14.518Z,8.07
2024-01-24T20:05:41.078Z,8.00
2024-01-24T20:08:07.802Z,8.06
2024-01-24T20:10:34.533Z,7.98
2024-01-24T20:13:01.056Z,7.99
2024-01-24T20:15:34.587Z,8.10
2024-01-24T20:18:01.242Z,8.14
2024-01-24T20:20:29.853Z,7.95
2024-01-24T20:22:56.465Z,7.93
2024-01-24T20:25:23.026Z,8.04
2024-01-24T20:27:51.065Z,8.01
2024-01-24T20:30:21.989Z,8.09
2024-01-24T20:32:57.417Z,8.12
2024-01-24T20:35:33.378Z,8.01
2024-01-24T20:38:01.896Z,7.86
2024-01-24T20:40:28.449Z,8.00
2024-01-24T20:42:55.353Z,7.99
2024-01-24T20:45:21.914Z,7.94
2024-01-24T20:47:50.524Z,7.90
2024-01-24T20:50:21.644Z,7.97
2024-01-24T20:52:51.088Z,8.04
2024-01-24T20:55:17.934Z,8.05
2024-01-24T20:57:45.608Z,7.91
2024-01-24T21:00:12.834Z,7.83
2024-01-24T21:02:39.497Z,7.82
2024-01-24T21:05:06.836Z,7.79
2024-01-24T21:07:33.766Z,7.90
2024-01-24T21:10:00.447Z,7.77
2024-01-24T21:12:26.954Z,7.81
2024-01-24T21:14:57.629Z,7.83
2024-01-24T21:17:25.197Z,7.77
2024-01-24T21:19:51.869Z,7.86
2024-01-24T21:22:18.586Z,7.77
2024-01-24T21:24:47.290Z,7.67
2024-01-24T21:27:13.845Z,7.70
2024-01-24T21:29:43.770Z,7.57
2024-01-24T21:32:13.126Z,7.79
2024-01-24T21:34:41.442Z,7.67
2024-01-24T21:37:08.104Z,7.81
2024-01-24T21:39:34.792Z,7.59
2024-01-24T21:42:02.451Z,7.86
2024-01-24T21:44:28.949Z,7.68
2024-01-24T21:46:55.487Z,7.71
2024-01-24T21:49:22.080Z,7.65
2024-01-24T21:51:48.623Z,7.90
2024-01-24T21:54:16.694Z,7.78
2024-01-24T21:56:43.360Z,7.62
2024-01-24T21:59:10.281Z,7.75
2024-01-24T22:01:39.097Z,7.69
2024-01-24T22:04:05.911Z,7.54
2024-01-24T22:06:32.746Z,7.69
2024-01-24T22:08:59.499Z,7.49
2024-01-24T22:11:29.353Z,7.61
2024-01-24T22:13:56.220Z,7.52
2024-01-24T22:16:22.758Z,7.57
2024-01-24T22:18:51.137Z,7.64
2024-01-24T22:21:18.648Z,7.56
2024-01-24T22:23:45.433Z,7.46
2024-01-24T22:26:11.917Z,7.45
2024-01-24T22:28:38.462Z,7.53
2024-01-24T22:31:05.190Z,7.43
2024-01-24T22:33:37.751Z,7.44
2024-01-24T22:36:04.746Z,7.34
2024-01-24T22:38:31.413Z,7.28
2024-01-24T22:40:58.405Z,7.35
2024-01-24T22:43:25.413Z,7.34
2024-01-24T22:45:52.010Z,7.26
2024-01-24T22:48:19.092Z,7.34
2024-01-24T22:50:45.746Z,7.14
2024-01-24T22:53:14.362Z,7.16
2024-01-24T22:55:42.017Z,7.28
2024-01-24T22:58:08.564Z,7.17
2024-01-24T23:00:35.125Z,7.15
2024-01-24T23:03:05.651Z,7.16
2024-01-24T23:05:32.202Z,7.04
2024-01-24T23:07:59.333Z,7.17
2024-01-24T23:10:27.854Z,7.09
2024-01-24T23:12:54.695Z,7.01
2024-01-24T23:15:28.402Z,6.93
2024-01-24T23:17:54.996Z,6.96
2024-01-24T23:20:22.699Z,6.93
2024-01-24T23:22:49.260Z,6.84
2024-01-24T23:25:15.774Z,6.96
2024-01-24T23:27:42.373Z,6.99
2024-01-24T23:30:09.473Z,6.96
2024-01-24T23:32:37.012Z,6.94
2024-01-24T23:35:04.180Z,6.95
2024-01-24T23:37:31.932Z,7.05
2024-01-24T23:39:59.691Z,6.86
2024-01-24T23:42:26.206Z,6.89
2024-01-24T23:44:53.806Z,6.94
2024-01-24T23:47:20.271Z,6.97
2024-01-24T23:49:47.029Z,6.93
2024-01-24T23:52:13.925Z,7.09
2024-01-24T23:54:40.467Z,6.91
2024-01-24T23:57:07.072Z,6.95
2024-01-24T23:59:34.306Z,6.95
